Time;durP1;ratioP1;P1;durP2;ratioP2;P2;SDS_P1;SDS_P2;PMS_P1;PMS_P2;Temp;Humidity;BMP_temperature;BMP_pressure;BME280_temperature;BME280_humidity;BME280_pressure;Samples;Min_cycle;Max_cycle;Signal;HPM_P1;HPM_P2
2023/05/23 00:02:12;;;;;;;;;34.25;31.50;;;;;;;;5057840;28;9367;-90
2023/05/23 00:04:39;;;;;;;;;29.75;28.50;;;;;;;;5052044;28;9588;-92
2023/05/23 00:07:06;;;;;;;;;31.67;29.33;;;;;;;;5057832;28;9572;-90
2023/05/23 00:09:36;;;;;;;;;26.00;23.00;;;;;;;;5059222;28;10176;-94
2023/05/23 00:12:04;;;;;;;;;24.67;22.67;;;;;;;;5055499;28;9313;-93
2023/05/23 00:14:34;;;;;;;;;33.00;27.67;;;;;;;;5054607;28;9391;-89
2023/05/23 00:17:01;;;;;;;;;33.75;24.75;;;;;;;;5046664;28;9301;-90
2023/05/23 00:19:28;;;;;;;;;28.50;25.00;;;;;;;;5053926;28;9443;-85
2023/05/23 00:21:58;;;;;;;;;34.67;29.33;;;;;;;;5054379;28;9490;-83
2023/05/23 00:24:26;;;;;;;;;28.50;27.00;;;;;;;;5053689;28;9454;-89
2023/05/23 00:26:53;;;;;;;;;32.75;31.00;;;;;;;;5053225;28;9585;-85
2023/05/23 00:29:20;;;;;;;;;34.50;31.75;;;;;;;;5042560;28;9472;-86
2023/05/23 00:31:49;;;;;;;;;30.75;30.50;;;;;;;;5054028;28;9591;-86
2023/05/23 00:34:17;;;;;;;;;34.25;30.00;;;;;;;;5054143;28;9480;-90
2023/05/23 00:36:46;;;;;;;;;35.50;31.50;;;;;;;;5055928;28;9739;-84
2023/05/23 00:39:18;;;;;;;;;35.25;31.50;;;;;;;;5056734;28;9609;-91
2023/05/23 00:41:45;;;;;;;;;36.00;30.50;;;;;;;;5055851;28;9685;-87
2023/05/23 00:44:13;;;;;;;;;36.25;32.75;;;;;;;;5054195;28;9882;-85
2023/05/23 00:46:41;;;;;;;;;35.25;31.75;;;;;;;;5053365;28;9814;-88
2023/05/23 00:49:10;;;;;;;;;37.75;34.25;;;;;;;;5052206;28;9798;-91
2023/05/23 00:51:37;;;;;;;;;35.50;30.00;;;;;;;;5051570;28;9867;-86
2023/05/23 00:54:06;;;;;;;;;36.50;32.00;;;;;;;;5052306;28;9744;-84
2023/05/23 00:56:33;;;;;;;;;35.25;31.50;;;;;;;;5053932;28;9873;-82
2023/05/23 00:59:01;;;;;;;;;37.00;33.75;;;;;;;;5053093;28;9939;-82
2023/05/23 01:01:29;;;;;;;;;31.75;31.00;;;;;;;;5052475;28;9806;-80
2023/05/23 01:03:59;;;;;;;;;33.50;32.00;;;;;;;;5051956;28;10265;-82
2023/05/23 01:06:31;;;;;;;;;40.00;34.75;;;;;;;;5053217;28;10628;-88
2023/05/23 01:09:02;;;;;;;;;36.25;32.50;;;;;;;;5054953;28;9791;-90
2023/05/23 01:11:35;;;;;;;;;30.00;29.25;;;;;;;;5056274;28;9863;-85
2023/05/23 01:14:07;;;;;;;;;37.50;31.50;;;;;;;;5053950;28;9782;-86
2023/05/23 01:16:41;;;;;;;;;32.50;31.50;;;;;;;;5053751;28;9948;-86
2023/05/23 01:19:25;;;;;;;;;38.00;33.25;;;;;;;;5054087;28;10044;-88
2023/05/23 01:21:55;;;;;;;;;42.00;34.00;;;;;;;;5045406;28;10025;-86
2023/05/23 01:24:36;;;;;;;;;40.25;35.25;;;;;;;;5053900;28;10064;-85
2023/05/23 01:27:12;;;;;;;;;37.00;32.25;;;;;;;;5053934;28;10348;-90
2023/05/23 01:29:45;;;;;;;;;46.50;37.00;;;;;;;;5054589;28;10267;-85
2023/05/23 01:32:14;;;;;;;;;42.25;35.25;;;;;;;;5052557;28;10316;-93
2023/05/23 01:34:42;;;;;;;;;38.75;35.75;;;;;;;;5053261;28;10288;-86
2023/05/23 01:37:10;;;;;;;;;39.00;33.75;;;;;;;;5053416;28;10303;-86
2023/05/23 01:39:37;;;;;;;;;36.50;32.50;;;;;;;;5060346;28;10276;-89
2023/05/23 01:42:06;;;;;;;;;38.50;33.25;;;;;;;;5057486;28;10253;-89
2023/05/23 01:44:33;;;;;;;;;36.50;31.75;;;;;;;;5059017;28;10219;-94
2023/05/23 01:47:04;;;;;;;;;38.25;33.50;;;;;;;;5053068;28;10139;-92
2023/05/23 01:49:31;;;;;;;;;37.50;34.50;;;;;;;;5067335;28;10107;-91
2023/05/23 01:52:00;;;;;;;;;36.50;33.00;;;;;;;;5056028;28;10198;-88
2023/05/23 01:54:28;;;;;;;;;39.00;33.25;;;;;;;;5054066;28;10975;-92
2023/05/23 01:56:57;;;;;;;;;40.00;33.25;;;;;;;;5054961;28;10278;-90
2023/05/23 01:59:24;;;;;;;;;45.25;37.25;;;;;;;;5051991;28;10283;-90
2023/05/23 02:01:52;;;;;;;;;30.75;29.00;;;;;;;;5051399;28;10250;-84
2023/05/23 02:04:21;;;;;;;;;34.75;32.75;;;;;;;;5066111;28;10046;-84
2023/05/23 02:06:48;;;;;;;;;40.50;35.00;;;;;;;;5050538;28;10232;-84
2023/05/23 02:09:16;;;;;;;;;35.00;32.75;;;;;;;;5051270;28;10152;-84
2023/05/23 02:11:43;;;;;;;;;43.75;34.25;;;;;;;;5054043;28;10107;-81
2023/05/23 02:14:12;;;;;;;;;40.75;36.25;;;;;;;;5053589;28;10563;-83
2023/05/23 02:16:39;;;;;;;;;40.00;33.75;;;;;;;;5052072;28;10389;-81
2023/05/23 02:19:08;;;;;;;;;34.50;33.00;;;;;;;;5050781;28;10227;-83
2023/05/23 02:21:37;;;;;;;;;39.00;34.00;;;;;;;;5050496;28;10358;-92
2023/05/23 02:24:05;;;;;;;;;43.75;37.00;;;;;;;;5050482;28;10365;-86
2023/05/23 02:26:32;;;;;;;;;44.50;35.25;;;;;;;;5049783;28;10289;-86
2023/05/23 02:28:59;;;;;;;;;41.75;33.75;;;;;;;;5050412;28;10110;-83
2023/05/23 02:31:29;;;;;;;;;45.50;38.00;;;;;;;;5049949;28;10351;-86
2023/05/23 02:33:56;;;;;;;;;33.25;30.75;;;;;;;;5046811;28;10568;-83
2023/05/23 02:36:23;;;;;;;;;42.00;35.50;;;;;;;;5048587;28;10442;-84
2023/05/23 02:38:52;;;;;;;;;46.25;39.00;;;;;;;;5050566;28;10399;-83
2023/05/23 02:41:20;;;;;;;;;38.50;33.75;;;;;;;;5050586;28;10726;-84
2023/05/23 02:43:47;;;;;;;;;38.00;33.50;;;;;;;;5052812;28;10204;-88
2023/05/23 02:46:14;;;;;;;;;35.25;32.75;;;;;;;;5051798;28;10291;-82
2023/05/23 02:48:42;;;;;;;;;37.50;31.25;;;;;;;;5051442;28;10495;-82
2023/05/23 02:51:09;;;;;;;;;33.50;32.50;;;;;;;;5051434;28;10129;-84
2023/05/23 02:53:36;;;;;;;;;33.00;32.00;;;;;;;;5050656;28;10263;-82
2023/05/23 02:56:07;;;;;;;;;34.00;31.75;;;;;;;;5050663;28;10407;-90
2023/05/23 02:58:35;;;;;;;;;35.50;32.50;;;;;;;;5050373;28;10328;-85
2023/05/23 03:01:03;;;;;;;;;39.50;34.00;;;;;;;;5049683;28;10198;-86
2023/05/23 03:03:30;;;;;;;;;36.75;33.25;;;;;;;;5049364;28;10212;-89
2023/05/23 03:05:58;;;;;;;;;36.00;32.00;;;;;;;;5050454;28;10542;-89
2023/05/23 03:08:25;;;;;;;;;36.50;31.25;;;;;;;;5049607;28;10489;-90
2023/05/23 03:10:53;;;;;;;;;39.75;34.00;;;;;;;;5046050;28;10218;-91
2023/05/23 03:13:22;;;;;;;;;31.50;29.75;;;;;;;;5046931;28;10421;-87
2023/05/23 03:15:52;;;;;;;;;36.50;32.75;;;;;;;;5053780;28;10140;-87
2023/05/23 03:18:19;;;;;;;;;32.75;29.75;;;;;;;;5054801;28;9941;-86
2023/05/23 03:20:46;;;;;;;;;26.00;25.00;;;;;;;;5050251;28;9967;-90
2023/05/23 03:23:14;;;;;;;;;36.50;32.00;;;;;;;;5049681;28;10183;-93
2023/05/23 03:25:42;;;;;;;;;31.50;30.00;;;;;;;;5050480;28;10146;-83
2023/05/23 03:28:11;;;;;;;;;29.00;26.50;;;;;;;;5050533;28;9963;-91
2023/05/23 03:30:39;;;;;;;;;29.50;28.75;;;;;;;;5049706;28;9938;-87
2023/05/23 03:33:07;;;;;;;;;29.25;27.25;;;;;;;;5049020;28;9915;-88
2023/05/23 03:35:34;;;;;;;;;28.00;28.00;;;;;;;;5049268;28;9903;-89
2023/05/23 03:38:01;;;;;;;;;32.25;30.00;;;;;;;;5049470;28;10035;-92
2023/05/23 03:40:28;;;;;;;;;21.75;21.75;;;;;;;;5047058;28;9715;-92
2023/05/23 03:43:06;;;;;;;;;27.25;25.50;;;;;;;;5054144;28;10756;-93
2023/05/23 03:45:33;;;;;;;;;33.50;28.50;;;;;;;;5057042;28;9771;-92
2023/05/23 03:48:02;;;;;;;;;26.25;25.75;;;;;;;;5053562;28;10058;-84
2023/05/23 03:50:30;;;;;;;;;26.00;24.00;;;;;;;;5051984;28;9877;-84
2023/05/23 03:52:57;;;;;;;;;32.50;30.25;;;;;;;;5050501;28;9895;-90
2023/05/23 03:55:25;;;;;;;;;25.50;25.50;;;;;;;;5050331;28;9881;-89
2023/05/23 03:57:52;;;;;;;;;22.25;21.00;;;;;;;;5048190;28;9790;-89
2023/05/23 04:00:20;;;;;;;;;28.25;25.25;;;;;;;;5046596;28;9996;-83
2023/05/23 04:02:48;;;;;;;;;29.75;27.50;;;;;;;;5057343;28;9793;-85
2023/05/23 04:05:17;;;;;;;;;32.50;29.25;;;;;;;;5049399;28;9935;-81
2023/05/23 04:07:45;;;;;;;;;36.75;30.75;;;;;;;;5047108;28;9938;-79
2023/05/23 04:10:12;;;;;;;;;29.75;28.00;;;;;;;;5047474;28;9941;-81
2023/05/23 04:12:41;;;;;;;;;36.75;32.50;;;;;;;;5047346;28;9967;-80
2023/05/23 04:15:12;;;;;;;;;33.50;31.00;;;;;;;;5047721;28;9958;-80
2023/05/23 04:17:39;;;;;;;;;29.00;26.50;;;;;;;;5048226;28;9809;-81
2023/05/23 04:20:08;;;;;;;;;32.25;30.00;;;;;;;;5047424;28;9787;-83
2023/05/23 04:22:37;;;;;;;;;37.75;30.75;;;;;;;;5048224;28;10049;-82
2023/05/23 04:25:06;;;;;;;;;30.25;26.75;;;;;;;;5046795;28;10044;-82
2023/05/23 04:27:33;;;;;;;;;34.00;31.00;;;;;;;;5047875;28;9958;-82
2023/05/23 04:30:00;;;;;;;;;31.00;29.25;;;;;;;;5047924;28;9945;-81
2023/05/23 04:32:28;;;;;;;;;35.50;31.50;;;;;;;;5047868;28;9897;-81
2023/05/23 04:34:56;;;;;;;;;39.50;31.50;;;;;;;;5049345;28;9897;-82
2023/05/23 04:37:24;;;;;;;;;34.50;31.00;;;;;;;;5049192;28;10128;-81
2023/05/23 04:39:53;;;;;;;;;32.25;31.25;;;;;;;;5049787;28;9798;-81
2023/05/23 04:42:23;;;;;;;;;28.25;28.25;;;;;;;;5047748;28;9886;-81
2023/05/23 04:44:50;;;;;;;;;35.25;30.75;;;;;;;;5047791;28;9883;-81
2023/05/23 04:47:17;;;;;;;;;26.50;25.00;;;;;;;;5047646;28;9978;-81
2023/05/23 04:49:45;;;;;;;;;32.00;30.50;;;;;;;;5050239;28;10084;-81
2023/05/23 04:52:12;;;;;;;;;28.50;26.00;;;;;;;;5052398;28;9965;-82
2023/05/23 04:54:43;;;;;;;;;38.00;33.00;;;;;;;;5051516;28;10031;-82
2023/05/23 04:57:14;;;;;;;;;31.50;30.25;;;;;;;;5048565;28;10155;-82
2023/05/23 04:59:42;;;;;;;;;33.00;27.75;;;;;;;;5050710;28;10053;-82
2023/05/23 05:02:09;;;;;;;;;30.00;26.00;;;;;;;;5054431;28;9848;-81
2023/05/23 05:04:36;;;;;;;;;27.50;26.00;;;;;;;;5049642;28;10217;-82
2023/05/23 05:07:03;;;;;;;;;32.00;30.25;;;;;;;;5050795;28;10948;-82
2023/05/23 05:09:31;;;;;;;;;30.50;30.50;;;;;;;;5049895;28;10097;-81
2023/05/23 05:12:01;;;;;;;;;28.00;25.50;;;;;;;;5050361;28;9972;-80
2023/05/23 05:14:32;;;;;;;;;31.25;27.00;;;;;;;;5045847;28;10167;-82
2023/05/23 05:17:01;;;;;;;;;28.00;23.50;;;;;;;;5048613;28;10119;-82
2023/05/23 05:19:28;;;;;;;;;22.75;22.75;;;;;;;;5051329;28;9819;-82
2023/05/23 05:21:56;;;;;;;;;25.50;22.50;;;;;;;;5050618;28;10431;-80
2023/05/23 05:24:23;;;;;;;;;21.50;21.50;;;;;;;;5050650;28;9882;-85
2023/05/23 05:26:51;;;;;;;;;24.00;22.25;;;;;;;;5048704;28;9879;-82
2023/05/23 05:29:18;;;;;;;;;20.00;20.00;;;;;;;;5050701;28;10116;-83
2023/05/23 05:31:47;;;;;;;;;20.00;18.75;;;;;;;;5042654;28;9791;-82
2023/05/23 05:34:17;;;;;;;;;24.25;24.25;;;;;;;;5050830;28;9814;-85
2023/05/23 05:36:46;;;;;;;;;21.75;18.75;;;;;;;;5050355;28;9812;-82
2023/05/23 05:39:18;;;;;;;;;28.00;22.50;;;;;;;;5050479;28;9784;-83
2023/05/23 05:41:46;;;;;;;;;18.50;18.50;;;;;;;;5050453;28;9714;-86
2023/05/23 05:44:13;;;;;;;;;23.75;23.00;;;;;;;;5050893;28;9696;-82
2023/05/23 05:46:40;;;;;;;;;24.00;24.00;;;;;;;;5049246;28;9705;-84
2023/05/23 05:49:09;;;;;;;;;18.25;17.75;;;;;;;;5050457;28;9707;-82
2023/05/23 05:51:36;;;;;;;;;23.75;22.50;;;;;;;;5050835;28;9876;-83
2023/05/23 05:54:03;;;;;;;;;19.25;16.75;;;;;;;;5049011;28;9990;-84
2023/05/23 05:56:31;;;;;;;;;25.75;23.75;;;;;;;;5048667;28;9732;-83
2023/05/23 05:58:58;;;;;;;;;21.50;20.00;;;;;;;;5050153;28;9626;-84
2023/05/23 06:01:25;;;;;;;;;25.00;21.75;;;;;;;;5049598;28;9681;-84
2023/05/23 06:03:52;;;;;;;;;24.00;21.00;;;;;;;;5050396;28;9731;-84
2023/05/23 06:06:23;;;;;;;;;25.25;23.00;;;;;;;;5051080;28;9833;-84
2023/05/23 06:08:50;;;;;;;;;21.25;18.00;;;;;;;;5053572;28;10347;-83
2023/05/23 06:11:17;;;;;;;;;22.75;19.50;;;;;;;;5050846;28;9624;-84
2023/05/23 06:13:44;;;;;;;;;18.25;16.75;;;;;;;;5051793;28;9627;-82
2023/05/23 06:16:12;;;;;;;;;16.75;16.75;;;;;;;;5049935;28;9632;-83
2023/05/23 06:18:39;;;;;;;;;21.25;18.25;;;;;;;;5051163;28;9578;-83
2023/05/23 06:21:09;;;;;;;;;20.50;18.75;;;;;;;;5051016;28;9598;-86
2023/05/23 06:23:37;;;;;;;;;20.25;17.25;;;;;;;;5051039;28;9566;-81
2023/05/23 06:26:06;;;;;;;;;19.00;17.00;;;;;;;;5059940;28;9481;-85
2023/05/23 06:28:34;;;;;;;;;21.50;19.75;;;;;;;;5050020;28;9492;-85
2023/05/23 06:31:01;;;;;;;;;21.33;17.00;;;;;;;;5049595;28;9432;-83
2023/05/23 06:33:30;;;;;;;;;27.00;20.33;;;;;;;;5049710;28;9402;-83
2023/05/23 06:36:00;;;;;;;;;18.25;17.00;;;;;;;;5049440;28;9488;-83
2023/05/23 06:38:29;;;;;;;;;19.67;19.67;;;;;;;;5049388;28;10254;-85
2023/05/23 06:40:58;;;;;;;;;20.00;20.00;;;;;;;;5055493;28;9511;-83
2023/05/23 06:43:25;;;;;;;;;18.00;16.00;;;;;;;;5041949;28;10256;-79
2023/05/23 06:45:52;;;;;;;;;25.25;21.25;;;;;;;;5049013;28;9269;-82
2023/05/23 06:48:19;;;;;;;;;24.67;23.00;;;;;;;;5050161;28;9528;-83
2023/05/23 06:50:47;;;;;;;;;28.25;22.75;;;;;;;;5049737;28;9389;-83
2023/05/23 06:53:17;;;;;;;;;26.50;24.50;;;;;;;;5049187;28;9541;-81
2023/05/23 06:55:44;;;;;;;;;20.67;20.67;;;;;;;;5042184;28;9481;-81
2023/05/23 06:58:13;;;;;;;;;27.50;26.00;;;;;;;;5049778;28;9419;-81
2023/05/23 07:00:42;;;;;;;;;22.00;21.00;;;;;;;;5051328;28;9543;-83
2023/05/23 07:03:10;;;;;;;;;21.67;21.67;;;;;;;;5049970;28;9407;-81
2023/05/23 07:05:37;;;;;;;;;26.00;23.33;;;;;;;;5049074;28;9326;-81
2023/05/23 07:08:05;;;;;;;;;25.33;22.00;;;;;;;;5048804;28;9412;-81
2023/05/23 07:10:33;;;;;;;;;22.67;21.33;;;;;;;;5048124;28;9482;-81
2023/05/23 07:13:00;;;;;;;;;26.25;24.00;;;;;;;;5047721;28;9392;-81
2023/05/23 07:15:29;;;;;;;;;28.50;28.25;;;;;;;;5047989;28;9475;-81
2023/05/23 07:17:56;;;;;;;;;27.00;25.33;;;;;;;;5045628;28;9564;-80
2023/05/23 07:20:23;;;;;;;;;29.50;27.75;;;;;;;;5047745;28;9390;-80
2023/05/23 07:22:51;;;;;;;;;26.00;22.50;;;;;;;;5047919;28;9574;-81
2023/05/23 07:25:19;;;;;;;;;28.50;25.00;;;;;;;;5047618;28;9635;-81
2023/05/23 07:27:46;;;;;;;;;27.75;26.50;;;;;;;;5048046;28;9561;-80
2023/05/23 07:30:15;;;;;;;;;28.75;25.50;;;;;;;;5047568;28;9725;-80
2023/05/23 07:32:43;;;;;;;;;28.50;25.00;;;;;;;;5047985;28;9404;-81
2023/05/23 07:35:11;;;;;;;;;26.50;24.75;;;;;;;;5047609;28;9413;-81
2023/05/23 07:37:38;;;;;;;;;23.33;21.00;;;;;;;;5047802;28;9593;-81
2023/05/23 07:40:07;;;;;;;;;24.33;24.33;;;;;;;;5047875;28;9326;-81
2023/05/23 07:42:35;;;;;;;;;28.75;22.00;;;;;;;;5037281;28;10246;-82
2023/05/23 07:45:02;;;;;;;;;18.33;17.33;;;;;;;;5047734;28;9436;-81
2023/05/23 07:47:29;;;;;;;;;21.00;20.33;;;;;;;;5048023;28;9431;-82
2023/05/23 07:50:01;;;;;;;;;28.67;28.67;;;;;;;;5047651;28;9401;-81
2023/05/23 07:52:29;;;;;;;;;27.00;27.00;;;;;;;;5048177;28;9490;-82
2023/05/23 07:54:56;;;;;;;;;26.67;25.67;;;;;;;;5051657;28;9395;-82
2023/05/23 07:57:24;;;;;;;;;25.00;24.25;;;;;;;;5051217;28;9339;-81
2023/05/23 07:59:52;;;;;;;;;30.00;26.67;;;;;;;;5051753;28;9474;-81
2023/05/23 08:02:19;;;;;;;;;28.00;24.67;;;;;;;;5059594;28;9346;-81
2023/05/23 08:04:47;;;;;;;;;21.67;21.67;;;;;;;;5049932;28;9328;-81
2023/05/23 08:07:16;;;;;;;;;24.00;21.33;;;;;;;;5051548;28;9376;-81
2023/05/23 08:09:44;;;;;;;;;18.33;18.00;;;;;;;;5050672;28;9167;-81
2023/05/23 08:12:11;;;;;;;;;21.00;18.67;;;;;;;;5049428;28;9416;-80
2023/05/23 08:14:38;;;;;;;;;22.33;19.00;;;;;;;;5044026;28;9278;-81
2023/05/23 08:17:06;;;;;;;;;23.00;22.00;;;;;;;;5047663;28;9244;-81
2023/05/23 08:19:33;;;;;;;;;21.00;18.00;;;;;;;;5051534;28;9367;-83
2023/05/23 08:22:01;;;;;;;;;20.33;17.33;;;;;;;;5054307;28;9335;-79
2023/05/23 08:24:29;;;;;;;;;20.33;18.00;;;;;;;;5052945;28;9360;-82
2023/05/23 08:26:57;;;;;;;;;19.00;16.00;;;;;;;;5053957;28;9274;-82
2023/05/23 08:29:24;;;;;;;;;21.00;17.33;;;;;;;;5051694;28;10023;-85
2023/05/23 08:31:51;;;;;;;;;17.67;16.33;;;;;;;;5050902;28;9221;-85
2023/05/23 08:34:18;;;;;;;;;17.33;15.67;;;;;;;;5051471;28;9429;-85
2023/05/23 08:36:45;;;;;;;;;22.67;19.33;;;;;;;;5051533;28;9401;-79
2023/05/23 08:39:13;;;;;;;;;22.00;18.00;;;;;;;;5052160;28;9203;-85
2023/05/23 08:41:42;;;;;;;;;20.67;18.00;;;;;;;;5052495;28;9388;-85
2023/05/23 08:44:09;;;;;;;;;17.00;15.00;;;;;;;;5052856;28;9325;-84
2023/05/23 08:46:41;;;;;;;;;25.33;23.67;;;;;;;;5052941;28;9126;-84
2023/05/23 08:49:08;;;;;;;;;19.00;19.00;;;;;;;;5054694;28;9246;-86
2023/05/23 08:51:36;;;;;;;;;17.67;17.67;;;;;;;;5054472;28;9083;-85
2023/05/23 08:54:04;;;;;;;;;20.00;19.00;;;;;;;;5053048;28;9140;-83
2023/05/23 08:56:33;;;;;;;;;16.67;16.67;;;;;;;;5053911;28;8978;-80
2023/05/23 08:59:02;;;;;;;;;17.25;17.25;;;;;;;;5053362;28;8965;-81
2023/05/23 09:01:30;;;;;;;;;17.75;15.75;;;;;;;;5052097;28;8863;-85
2023/05/23 09:04:03;;;;;;;;;17.50;14.75;;;;;;;;5051721;28;8870;-82
2023/05/23 09:06:31;;;;;;;;;16.00;15.50;;;;;;;;5051194;28;8981;-84
2023/05/23 09:08:59;;;;;;;;;17.33;16.00;;;;;;;;5051844;28;8927;-89
2023/05/23 09:11:26;;;;;;;;;20.00;16.67;;;;;;;;5049906;28;9002;-87
2023/05/23 09:13:54;;;;;;;;;16.00;14.00;;;;;;;;5051948;28;9215;-87
2023/05/23 09:16:23;;;;;;;;;16.00;16.00;;;;;;;;5051396;28;9025;-88
2023/05/23 09:18:50;;;;;;;;;15.00;15.00;;;;;;;;5051736;28;9151;-88
2023/05/23 09:21:18;;;;;;;;;18.00;16.67;;;;;;;;5051188;28;8893;-92
2023/05/23 09:23:45;;;;;;;;;20.33;20.33;;;;;;;;5051624;28;9129;-82
2023/05/23 09:26:15;;;;;;;;;16.00;16.00;;;;;;;;5054755;28;9260;-88
2023/05/23 09:28:43;;;;;;;;;19.00;17.33;;;;;;;;5056678;28;8947;-91
2023/05/23 09:31:11;;;;;;;;;23.33;21.67;;;;;;;;5047703;28;9028;-89
2023/05/23 09:33:43;;;;;;;;;16.67;16.67;;;;;;;;5044690;28;9173;-92
2023/05/23 09:36:10;;;;;;;;;17.33;16.00;;;;;;;;5034134;28;9013;-91
2023/05/23 09:38:39;;;;;;;;;20.33;19.00;;;;;;;;5034342;28;9892;-91
2023/05/23 09:41:06;;;;;;;;;21.75;19.75;;;;;;;;5037242;28;9122;-92
2023/05/23 09:43:35;;;;;;;;;19.75;19.00;;;;;;;;5030552;28;8892;-89
2023/05/23 09:46:08;;;;;;;;;23.25;20.75;;;;;;;;5031079;28;8846;-92
2023/05/23 09:48:35;;;;;;;;;18.50;18.25;;;;;;;;5035070;28;9240;-90
2023/05/23 09:51:06;;;;;;;;;17.25;15.75;;;;;;;;5036142;28;8834;-91
2023/05/23 09:53:33;;;;;;;;;18.25;18.25;;;;;;;;5036046;28;8882;-85
2023/05/23 09:56:03;;;;;;;;;16.25;16.25;;;;;;;;5034502;28;8877;-89
2023/05/23 09:58:31;;;;;;;;;20.25;19.00;;;;;;;;5034332;28;8850;-91
2023/05/23 10:01:02;;;;;;;;;19.00;16.75;;;;;;;;5034359;28;8782;-86
2023/05/23 10:03:34;;;;;;;;;18.75;17.75;;;;;;;;5038055;28;9000;-85
2023/05/23 10:06:08;;;;;;;;;18.25;18.00;;;;;;;;5031038;28;8976;-84
2023/05/23 10:08:39;;;;;;;;;16.75;14.00;;;;;;;;5032774;28;8878;-83
2023/05/23 10:11:51;;;;;;;;;13.50;13.50;;;;;;;;5035633;28;8853;-83
2023/05/23 10:14:19;;;;;;;;;15.00;14.25;;;;;;;;5011647;28;8900;-85
2023/05/23 10:16:58;;;;;;;;;13.00;11.75;;;;;;;;5035926;28;8868;-89
2023/05/23 10:19:27;;;;;;;;;13.00;12.50;;;;;;;;5033765;28;8882;-85
2023/05/23 10:22:02;;;;;;;;;13.75;13.75;;;;;;;;5029539;28;8931;-85
2023/05/23 10:24:29;;;;;;;;;14.00;13.50;;;;;;;;5030196;28;8858;-84
2023/05/23 10:27:00;;;;;;;;;13.50;12.50;;;;;;;;5030007;28;8865;-81
2023/05/23 10:29:27;;;;;;;;;13.50;13.25;;;;;;;;5029396;28;8849;-80
2023/05/23 10:31:55;;;;;;;;;15.25;12.75;;;;;;;;5030566;28;8822;-81
2023/05/23 10:34:28;;;;;;;;;11.75;11.75;;;;;;;;5027516;28;9617;-80
2023/05/23 10:37:03;;;;;;;;;14.00;14.00;;;;;;;;5022432;28;8873;-80
2023/05/23 10:39:43;;;;;;;;;10.25;10.25;;;;;;;;5027361;28;8952;-84
2023/05/23 10:42:15;;;;;;;;;13.50;13.50;;;;;;;;5029925;28;8838;-79
2023/05/23 10:44:43;;;;;;;;;12.50;9.25;;;;;;;;5023373;28;8888;-83
2023/05/23 10:47:11;;;;;;;;;12.50;10.75;;;;;;;;5027929;28;8870;-82
2023/05/23 10:49:40;;;;;;;;;15.00;12.50;;;;;;;;5029994;28;8842;-81
2023/05/23 10:52:12;;;;;;;;;9.75;8.75;;;;;;;;5030438;28;8854;-82
2023/05/23 10:54:43;;;;;;;;;12.00;12.00;;;;;;;;5030298;28;8854;-87
2023/05/23 10:57:12;;;;;;;;;14.00;13.25;;;;;;;;5030659;28;8864;-85
2023/05/23 10:59:39;;;;;;;;;11.20;10.20;;;;;;;;5031670;28;9616;-85
2023/05/23 11:02:13;;;;;;;;;12.00;12.00;;;;;;;;5029812;28;8798;-82
2023/05/23 11:04:41;;;;;;;;;12.40;11.80;;;;;;;;5028357;28;8858;-82
2023/05/23 11:07:29;;;;;;;;;16.00;12.80;;;;;;;;5031000;28;8876;-88
2023/05/23 11:10:09;;;;;;;;;12.80;11.00;;;;;;;;5018408;28;8857;-85
2023/05/23 11:12:41;;;;;;;;;10.60;10.60;;;;;;;;5027560;28;8860;-85
2023/05/23 11:15:20;;;;;;;;;10.40;10.40;;;;;;;;5026507;28;9667;-88
2023/05/23 11:17:52;;;;;;;;;13.80;11.60;;;;;;;;5029303;28;8873;-82
2023/05/23 11:20:22;;;;;;;;;12.40;11.20;;;;;;;;5029121;28;8841;-83
2023/05/23 11:23:01;;;;;;;;;12.80;12.20;;;;;;;;5029662;28;8857;-87
2023/05/23 11:25:42;;;;;;;;;13.40;12.80;;;;;;;;5029735;28;8850;-87
2023/05/23 11:28:09;;;;;;;;;12.60;12.60;;;;;;;;5030208;28;8869;-86
2023/05/23 11:30:37;;;;;;;;;9.60;9.60;;;;;;;;5029473;28;8817;-86
2023/05/23 11:33:10;;;;;;;;;10.80;9.60;;;;;;;;5032441;28;8853;-83
2023/05/23 11:35:37;;;;;;;;;11.40;10.60;;;;;;;;5032271;28;8845;-85
2023/05/23 11:38:06;;;;;;;;;9.20;9.20;;;;;;;;5034713;28;8846;-84
2023/05/23 11:40:35;;;;;;;;;11.00;11.00;;;;;;;;5031755;28;8865;-83
2023/05/23 11:43:04;;;;;;;;;12.80;9.80;;;;;;;;5029880;28;8846;-84
2023/05/23 11:45:33;;;;;;;;;9.00;8.60;;;;;;;;5030146;28;8857;-85
2023/05/23 11:48:06;;;;;;;;;11.60;10.20;;;;;;;;5028853;28;9735;-85
2023/05/23 11:50:33;;;;;;;;;9.20;9.20;;;;;;;;5028667;28;8834;-83
2023/05/23 11:53:01;;;;;;;;;12.00;10.00;;;;;;;;5029536;28;8838;-84
2023/05/23 11:55:29;;;;;;;;;13.00;11.00;;;;;;;;5028655;28;8888;-82
2023/05/23 11:57:58;;;;;;;;;15.00;15.00;;;;;;;;5019812;28;8869;-86
2023/05/23 12:00:25;;;;;;;;;15.60;13.20;;;;;;;;5032281;28;8853;-84
2023/05/23 12:02:52;;;;;;;;;18.00;16.20;;;;;;;;5032882;28;8837;-83
2023/05/23 12:05:19;;;;;;;;;13.60;12.00;;;;;;;;5034704;28;8880;-81
2023/05/23 12:07:48;;;;;;;;;13.60;13.60;;;;;;;;5032697;28;8976;-82
2023/05/23 12:10:16;;;;;;;;;13.40;13.40;;;;;;;;5032082;28;8980;-79
2023/05/23 12:12:45;;;;;;;;;13.20;11.20;;;;;;;;5032099;28;8858;-83
2023/05/23 12:15:13;;;;;;;;;13.80;12.80;;;;;;;;5033033;28;8865;-83
2023/05/23 12:17:45;;;;;;;;;15.00;14.40;;;;;;;;5032656;28;8872;-81
2023/05/23 12:20:13;;;;;;;;;12.60;12.60;;;;;;;;5032007;28;8850;-80
2023/05/23 12:22:41;;;;;;;;;14.20;11.40;;;;;;;;5031897;28;9619;-80
2023/05/23 12:25:10;;;;;;;;;11.00;11.00;;;;;;;;5023100;28;8873;-78
2023/05/23 12:27:38;;;;;;;;;12.40;10.80;;;;;;;;5036893;28;8869;-84
2023/05/23 12:30:08;;;;;;;;;10.00;9.00;;;;;;;;5031470;28;9386;-78
2023/05/23 12:32:38;;;;;;;;;12.80;12.20;;;;;;;;5030350;28;8859;-81
2023/05/23 12:35:06;;;;;;;;;11.20;11.20;;;;;;;;5031363;28;9667;-81
2023/05/23 12:37:33;;;;;;;;;12.40;11.60;;;;;;;;5031581;28;9019;-80
2023/05/23 12:40:11;;;;;;;;;11.60;11.60;;;;;;;;5033458;28;8846;-80
2023/05/23 12:42:46;;;;;;;;;11.00;9.20;;;;;;;;5021031;28;8862;-81
2023/05/23 12:45:16;;;;;;;;;9.80;9.80;;;;;;;;5032269;28;8873;-81
2023/05/23 12:47:43;;;;;;;;;10.20;10.20;;;;;;;;5031478;28;8955;-81
2023/05/23 12:50:12;;;;;;;;;9.00;7.60;;;;;;;;5030385;28;8927;-82
2023/05/23 12:52:39;;;;;;;;;6.80;6.80;;;;;;;;5031608;28;8858;-82
2023/05/23 12:55:08;;;;;;;;;10.00;9.00;;;;;;;;5031088;28;9779;-82
2023/05/23 12:57:35;;;;;;;;;9.60;9.60;;;;;;;;5031694;28;8862;-82
2023/05/23 13:00:03;;;;;;;;;10.40;10.40;;;;;;;;5031622;28;8861;-82
2023/05/23 13:02:38;;;;;;;;;12.00;10.40;;;;;;;;5030668;28;8814;-81
2023/05/23 13:05:06;;;;;;;;;9.80;8.40;;;;;;;;5030392;28;8869;-81
2023/05/23 13:07:35;;;;;;;;;8.60;8.60;;;;;;;;5031141;28;8854;-80
2023/05/23 13:10:02;;;;;;;;;7.60;6.00;;;;;;;;5033849;28;8861;-79
2023/05/23 13:12:30;;;;;;;;;9.40;8.60;;;;;;;;5031822;28;8872;-84
2023/05/23 13:14:57;;;;;;;;;8.00;8.00;;;;;;;;5030955;28;8915;-82
2023/05/23 13:17:25;;;;;;;;;10.20;9.40;;;;;;;;5034037;28;8951;-83
2023/05/23 13:19:53;;;;;;;;;7.20;7.20;;;;;;;;5033304;28;8838;-79
2023/05/23 13:22:21;;;;;;;;;10.00;10.00;;;;;;;;5032402;28;8884;-79
2023/05/23 13:24:48;;;;;;;;;4.60;3.00;;;;;;;;5033071;28;8873;-80
2023/05/23 13:27:15;;;;;;;;;7.60;7.60;;;;;;;;5035270;28;8845;-79
2023/05/23 13:29:47;;;;;;;;;8.00;8.00;;;;;;;;5031627;28;8849;-88
2023/05/23 13:32:19;;;;;;;;;7.60;7.60;;;;;;;;5031179;28;8810;-86
2023/05/23 13:34:46;;;;;;;;;8.60;8.60;;;;;;;;5029480;28;8900;-83
2023/05/23 13:37:15;;;;;;;;;10.00;10.00;;;;;;;;5031328;28;8919;-82
2023/05/23 13:39:42;;;;;;;;;9.00;9.00;;;;;;;;5031472;28;8932;-82
2023/05/23 13:42:10;;;;;;;;;11.00;9.75;;;;;;;;5031911;28;8936;-85
2023/05/23 13:44:37;;;;;;;;;14.75;12.50;;;;;;;;5027155;28;8853;-80
2023/05/23 13:47:11;;;;;;;;;9.75;9.75;;;;;;;;5029605;28;8854;-84
2023/05/23 13:49:39;;;;;;;;;15.00;9.50;;;;;;;;5030571;28;8880;-79
2023/05/23 13:52:06;;;;;;;;;8.50;7.25;;;;;;;;5030331;28;8978;-78
2023/05/23 13:54:35;;;;;;;;;10.00;10.00;;;;;;;;5030493;28;8866;-80
2023/05/23 13:57:02;;;;;;;;;7.75;7.75;;;;;;;;5029706;28;8980;-80
2023/05/23 13:59:30;;;;;;;;;9.75;9.00;;;;;;;;5028987;28;8870;-80
2023/05/23 14:01:57;;;;;;;;;10.50;10.00;;;;;;;;5029844;28;8794;-80
2023/05/23 14:04:24;;;;;;;;;9.25;9.00;;;;;;;;5029843;28;8846;-79
2023/05/23 14:06:52;;;;;;;;;8.75;8.75;;;;;;;;5030189;28;8866;-79
2023/05/23 14:09:19;;;;;;;;;9.25;8.75;;;;;;;;5036168;28;8846;-78
2023/05/23 14:11:50;;;;;;;;;9.00;8.25;;;;;;;;5029444;28;8976;-78
2023/05/23 14:14:17;;;;;;;;;7.75;7.75;;;;;;;;5030088;28;8927;-76
2023/05/23 14:16:44;;;;;;;;;8.00;8.00;;;;;;;;5029558;28;8865;-77
2023/05/23 14:19:12;;;;;;;;;10.00;8.50;;;;;;;;5029105;28;8920;-77
2023/05/23 14:21:40;;;;;;;;;9.50;9.00;;;;;;;;5029031;28;8861;-80
2023/05/23 14:24:09;;;;;;;;;8.00;8.00;;;;;;;;5029238;28;8838;-80
2023/05/23 14:26:37;;;;;;;;;7.00;7.00;;;;;;;;5030189;28;8888;-80
2023/05/23 14:29:06;;;;;;;;;5.25;5.25;;;;;;;;5029768;28;8861;-81
2023/05/23 14:31:34;;;;;;;;;4.75;4.75;;;;;;;;5032943;28;8857;-79
2023/05/23 14:34:01;;;;;;;;;7.25;5.00;;;;;;;;5031166;28;8939;-79
2023/05/23 14:36:29;;;;;;;;;8.25;7.00;;;;;;;;5030091;28;9735;-79
2023/05/23 14:38:56;;;;;;;;;5.00;5.00;;;;;;;;5029587;28;8850;-79
2023/05/23 14:41:23;;;;;;;;;4.00;4.00;;;;;;;;5029602;28;9028;-79